createdAt,value
2018-11-04T00:01:24.615Z,80.53
2018-11-04T00:04:00.425Z,73.20
2018-11-04T00:06:36.811Z,82.43
2018-11-04T00:09:12.792Z,77.47
2018-11-04T00:11:48.702Z,81.03
2018-11-04T00:14:27.313Z,79.47
2018-11-04T00:17:03.561Z,76.20
2018-11-04T00:19:40.556Z,78.20
2018-11-04T00:22:16.987Z,80.80
2018-11-04T00:24:53.555Z,83.77
2018-11-04T00:27:29.755Z,75.53
2018-11-04T00:30:06.176Z,81.47
2018-11-04T00:32:42.883Z,85.30
2018-11-04T00:35:20.134Z,81.13
2018-11-04T00:37:56.187Z,82.30
2018-11-04T00:40:31.848Z,77.47
2018-11-04T00:43:07.603Z,86.30
2018-11-04T00:45:43.570Z,85.73
2018-11-04T00:48:19.426Z,77.00
2018-11-04T00:50:55.160Z,78.90
2018-11-04T00:53:31.114Z,81.20
2018-11-04T00:56:06.769Z,83.13
2018-11-04T00:58:42.553Z,83.67
2018-11-04T01:01:18.885Z,90.67
2018-11-04T01:03:55.229Z,79.97
2018-11-04T01:06:31.697Z,82.60
2018-11-04T01:09:08.756Z,77.27
2018-11-04T01:11:44.309Z,80.27
2018-11-04T01:14:21.048Z,79.53
2018-11-04T01:16:56.954Z,77.97
2018-11-04T01:19:32.682Z,81.00
2018-11-04T01:22:08.447Z,85.07
2018-11-04T01:24:44.316Z,80.13
2018-11-04T01:27:20.013Z,82.53
2018-11-04T01:29:55.714Z,83.47
2018-11-04T01:32:31.504Z,88.93
2018-11-04T01:35:07.821Z,86.53
2018-11-04T01:37:44.126Z,88.17
2018-11-04T01:40:20.010Z,87.27
2018-11-04T01:42:55.508Z,81.97
2018-11-04T01:45:31.385Z,84.27
2018-11-04T01:48:07.946Z,81.90
2018-11-04T01:50:43.633Z,77.90
2018-11-04T01:53:19.422Z,82.17
2018-11-04T01:55:55.414Z,83.00
2018-11-04T01:58:30.920Z,91.30
2018-11-04T02:01:06.791Z,74.23
2018-11-04T02:03:42.683Z,86.93
2018-11-04T02:06:18.558Z,79.07
2018-11-04T02:08:54.299Z,81.30
2018-11-04T02:11:30.021Z,77.03
2018-11-04T02:14:06.149Z,84.83
2018-11-04T02:16:41.794Z,75.50
2018-11-04T02:19:17.546Z,77.70
2018-11-04T02:21:53.669Z,79.50
2018-11-04T02:24:30.207Z,83.93
2018-11-04T02:27:06.287Z,85.00
2018-11-04T02:29:42.612Z,76.43
2018-11-04T02:32:18.981Z,75.20
2018-11-04T02:34:54.603Z,76.33
2018-11-04T02:37:30.221Z,80.53
2018-11-04T02:40:06.395Z,74.07
2018-11-04T02:42:42.738Z,80.07
2018-11-04T02:45:19.496Z,74.07
2018-11-04T02:47:55.584Z,78.33
2018-11-04T02:50:32.246Z,76.13
2018-11-04T02:53:08.154Z,72.97
2018-11-04T02:55:43.778Z,69.87
2018-11-04T02:58:19.487Z,69.83
2018-11-04T03:00:55.128Z,72.57
2018-11-04T03:03:30.971Z,79.90
2018-11-04T03:06:07.236Z,71.97
2018-11-04T03:08:42.805Z,75.43
2018-11-04T03:11:18.628Z,81.43
2018-11-04T03:13:54.537Z,78.93
2018-11-04T03:16:30.454Z,69.93
2018-11-04T03:19:06.430Z,78.90
2018-11-04T03:21:42.188Z,74.23
2018-11-04T03:24:19.155Z,77.60
2018-11-04T03:26:55.066Z,75.40
2018-11-04T03:29:31.027Z,74.70
2018-11-04T03:32:07.623Z,71.10
2018-11-04T03:34:43.699Z,78.37
2018-11-04T03:37:19.933Z,76.37
2018-11-04T03:39:57.103Z,74.80
2018-11-04T03:42:33.168Z,71.27
2018-11-04T03:45:09.568Z,67.10
2018-11-04T03:47:45.702Z,66.97
2018-11-04T03:50:23.149Z,73.30
2018-11-04T03:53:05.132Z,69.23
2018-11-04T03:55:41.104Z,69.10
2018-11-04T03:58:17.017Z,73.03
2018-11-04T04:00:53.072Z,68.83
2018-11-04T04:03:28.757Z,67.40
2018-11-04T04:06:04.685Z,64.00
2018-11-04T04:08:40.724Z,63.77
2018-11-04T04:11:17.629Z,64.90
2018-11-04T04:13:53.545Z,58.90
2018-11-04T04:16:29.511Z,67.03
2018-11-04T04:19:05.318Z,64.70
2018-11-04T04:21:41.148Z,67.97
2018-11-04T04:24:16.782Z,61.10
2018-11-04T04:26:52.524Z,60.23
2018-11-04T04:29:28.244Z,55.03
2018-11-04T04:32:04.273Z,54.90
2018-11-04T04:34:40.065Z,57.80
2018-11-04T04:37:16.836Z,49.97
2018-11-04T04:39:53.471Z,49.67
2018-11-04T04:42:29.359Z,52.37
2018-11-04T04:45:05.164Z,52.30
2018-11-04T04:47:40.831Z,50.87
2018-11-04T04:50:16.600Z,51.27
2018-11-04T04:52:52.708Z,48.53
2018-11-04T04:55:29.237Z,46.30
2018-11-04T04:58:05.725Z,47.87
2018-11-04T05:00:42.376Z,49.10
2018-11-04T05:03:18.556Z,54.17
2018-11-04T05:05:54.798Z,48.07
2018-11-04T05:08:30.652Z,49.47
2018-11-04T05:11:06.784Z,50.13
2018-11-04T05:13:42.420Z,51.27
2018-11-04T05:16:18.322Z,48.43
2018-11-04T05:18:54.734Z,44.07
2018-11-04T05:21:30.934Z,42.80
2018-11-04T05:24:07.027Z,46.33
2018-11-04T05:26:42.826Z,43.20
2018-11-04T05:29:19.375Z,43.27
2018-11-04T05:31:55.277Z,45.90
2018-11-04T05:34:31.118Z,41.43
2018-11-04T05:37:06.915Z,45.90
2018-11-04T05:39:44.215Z,43.80
2018-11-04T05:42:21.237Z,40.73
2018-11-04T05:44:57.360Z,48.77
2018-11-04T05:47:33.140Z,38.90
2018-11-04T05:50:08.851Z,43.90
2018-11-04T05:52:44.625Z,42.33
2018-11-04T05:55:21.453Z,39.70
2018-11-04T05:57:57.090Z,42.63
2018-11-04T06:00:33.017Z,47.80
2018-11-04T06:03:08.945Z,42.03
2018-11-04T06:05:44.663Z,46.40
2018-11-04T06:08:21.908Z,42.50
2018-11-04T06:10:58.424Z,41.33
2018-11-04T06:13:34.190Z,40.83
2018-11-04T06:16:10.970Z,46.13
2018-11-04T06:18:47.675Z,41.17
2018-11-04T06:21:23.578Z,43.70
2018-11-04T06:24:00.327Z,39.23
2018-11-04T06:26:36.999Z,44.03
2018-11-04T06:29:13.643Z,44.27
2018-11-04T06:31:49.405Z,40.47
2018-11-04T06:34:25.272Z,40.73
2018-11-04T06:37:01.804Z,36.27
2018-11-04T06:39:37.846Z,41.97
2018-11-04T06:42:14.344Z,39.57
2018-11-04T06:44:50.084Z,34.00
2018-11-04T06:47:26.051Z,31.30
2018-11-04T06:50:03.002Z,35.80
2018-11-04T06:52:39.483Z,35.23
2018-11-04T06:55:15.133Z,29.10
2018-11-04T06:57:51.061Z,43.73
2018-11-04T07:00:27.240Z,37.73
2018-11-04T07:03:03.901Z,39.37
2018-11-04T07:05:40.201Z,43.30
2018-11-04T07:08:16.396Z,42.40
2018-11-04T07:10:52.325Z,36.90
2018-11-04T07:13:28.041Z,42.77
2018-11-04T07:16:04.168Z,43.07
2018-11-04T07:18:40.551Z,40.90
2018-11-04T07:21:16.668Z,43.57
2018-11-04T07:23:52.465Z,29.70
2018-11-04T07:26:28.229Z,35.13
2018-11-04T07:29:05.276Z,34.00
2018-11-04T07:31:41.534Z,33.73
2018-11-04T07:34:17.310Z,34.87
2018-11-04T07:36:53.140Z,33.00
2018-11-04T07:39:28.860Z,39.07
2018-11-04T07:42:04.862Z,38.03
2018-11-04T07:44:41.768Z,35.80
2018-11-04T07:47:18.355Z,34.83
2018-11-04T07:49:54.213Z,33.77
2018-11-04T07:52:31.104Z,34.17
2018-11-04T07:55:08.879Z,35.63
2018-11-04T07:57:45.413Z,38.87
2018-11-04T08:00:22.241Z,36.23
2018-11-04T08:02:58.997Z,38.40
2018-11-04T08:05:35.848Z,40.97
2018-11-04T08:08:12.336Z,45.20
2018-11-04T08:10:48.204Z,33.50
2018-11-04T08:13:24.357Z,36.37
2018-11-04T08:16:01.581Z,35.17
2018-11-04T08:18:38.121Z,41.30
2018-11-04T08:21:14.430Z,36.90
2018-11-04T08:23:50.312Z,41.50
2018-11-04T08:26:26.186Z,42.07
2018-11-04T08:29:02.120Z,44.50
2018-11-04T08:31:38.371Z,40.70
2018-11-04T08:34:14.788Z,38.83
2018-11-04T08:36:51.618Z,41.50
2018-11-04T08:39:28.205Z,43.50
2018-11-04T08:42:03.966Z,36.43
2018-11-04T08:44:39.679Z,38.80
2018-11-04T08:47:16.924Z,36.90
2018-11-04T08:49:52.991Z,42.73
2018-11-04T08:52:28.890Z,37.27
2018-11-04T08:55:05.970Z,37.63
2018-11-04T08:57:42.311Z,41.67
2018-11-04T09:00:18.872Z,43.80
2018-11-04T09:02:54.782Z,40.53
2018-11-04T09:05:30.766Z,42.00
2018-11-04T09:08:07.485Z,43.90
2018-11-04T09:10:43.572Z,39.23
2018-11-04T09:13:21.243Z,40.43
2018-11-04T09:15:57.358Z,42.37
2018-11-04T09:18:35.981Z,39.23
2018-11-04T09:21:12.349Z,34.00
2018-11-04T09:23:48.779Z,41.00
2018-11-04T09:26:25.676Z,36.63
2018-11-04T09:29:02.541Z,31.33
2018-11-04T09:31:39.057Z,32.73
2018-11-04T09:34:14.982Z,36.17
2018-11-04T09:36:50.914Z,34.47
2018-11-04T09:39:27.480Z,35.80
2018-11-04T09:42:04.312Z,33.47
2018-11-04T09:44:41.086Z,31.07
2018-11-04T09:47:17.681Z,31.83
2018-11-04T09:49:54.494Z,34.60
2018-11-04T09:52:32.821Z,31.87
2018-11-04T09:55:10.097Z,32.90
2018-11-04T09:57:46.718Z,30.07
2018-11-04T10:00:22.583Z,33.17
2018-11-04T10:02:58.574Z,32.73
2018-11-04T10:05:35.237Z,32.73
2018-11-04T10:08:11.988Z,37.00
2018-11-04T10:10:48.712Z,36.00
2018-11-04T10:13:25.217Z,37.97
2018-11-04T10:16:00.962Z,31.87
2018-11-04T10:18:38.953Z,35.33
2018-11-04T10:21:16.004Z,30.80
2018-11-04T10:23:53.147Z,30.83
2018-11-04T10:26:29.896Z,32.03
2018-11-04T10:29:06.681Z,35.33
2018-11-04T10:31:43.304Z,34.17
2018-11-04T10:34:19.780Z,35.73
2018-11-04T10:36:56.331Z,34.70
2018-11-04T10:39:33.173Z,35.47
2018-11-04T10:42:09.666Z,35.23
2018-11-04T10:44:45.703Z,31.67
2018-11-04T10:47:23.083Z,32.13
2018-11-04T10:50:00.061Z,38.73
2018-11-04T10:52:36.670Z,40.07
2018-11-04T10:55:13.180Z,38.80
2018-11-04T10:57:49.345Z,37.23
2018-11-04T11:01:32.498Z,38.20
2018-11-04T11:04:08.572Z,34.43
2018-11-04T11:06:44.303Z,38.17
2018-11-04T11:09:20.763Z,42.57
2018-11-04T11:11:56.840Z,32.13
2018-11-04T11:14:32.738Z,34.13
2018-11-04T11:17:09.304Z,36.73
2018-11-04T11:19:45.374Z,36.20
2018-11-04T11:22:22.709Z,39.20
2018-11-04T11:24:59.014Z,41.90
2018-11-04T11:27:34.897Z,44.03
2018-11-04T11:30:11.577Z,42.17
2018-11-04T11:32:47.459Z,42.40
2018-11-04T11:35:24.097Z,40.80
2018-11-04T11:38:00.346Z,43.73
2018-11-04T11:40:36.907Z,47.00
2018-11-04T11:43:13.996Z,43.23
2018-11-04T11:45:51.675Z,47.97
2018-11-04T11:48:28.315Z,48.90
2018-11-04T11:51:05.532Z,46.90
2018-11-04T11:53:41.705Z,50.20
2018-11-04T11:56:17.411Z,37.73
2018-11-04T11:58:53.350Z,44.33
2018-11-04T12:01:29.507Z,42.60
2018-11-04T12:04:06.276Z,49.10
2018-11-04T12:06:43.205Z,48.27
2018-11-04T12:09:20.394Z,49.17
2018-11-04T12:11:57.321Z,52.40
2018-11-04T12:14:33.669Z,51.43
2018-11-04T12:17:10.384Z,50.73
2018-11-04T12:19:48.993Z,49.93
2018-11-04T12:22:25.628Z,45.27
2018-11-04T12:25:02.579Z,51.93
2018-11-04T12:27:39.493Z,51.93
2018-11-04T12:30:16.285Z,52.10
2018-11-04T12:32:52.946Z,46.00
2018-11-04T12:35:29.273Z,51.23
2018-11-04T12:38:05.999Z,49.87
2018-11-04T12:40:42.616Z,52.90
2018-11-04T12:43:19.160Z,52.17
2018-11-04T12:45:55.852Z,53.83
2018-11-04T12:48:32.852Z,47.43
2018-11-04T12:51:09.171Z,49.60
2018-11-04T12:53:46.645Z,50.10
2018-11-04T12:56:23.668Z,51.53
2018-11-04T12:58:59.659Z,51.33
2018-11-04T13:01:36.390Z,47.43
2018-11-04T13:04:13.232Z,51.70
2018-11-04T13:06:50.524Z,49.97
2018-11-04T13:09:26.594Z,56.73
2018-11-04T13:12:03.381Z,54.93
2018-11-04T13:14:39.194Z,51.87
2018-11-04T13:17:15.734Z,52.87
2018-11-04T13:19:51.636Z,52.70
2018-11-04T13:22:27.716Z,54.40
2018-11-04T13:25:05.294Z,59.97
2018-11-04T13:27:41.981Z,57.93
2018-11-04T13:30:18.070Z,53.07
2018-11-04T13:32:54.937Z,56.27
2018-11-04T13:35:31.363Z,55.40
2018-11-04T13:38:07.560Z,56.00
2018-11-04T13:40:43.297Z,62.43
2018-11-04T13:43:21.190Z,59.37
2018-11-04T13:46:00.489Z,59.63
2018-11-04T13:48:38.611Z,61.17
2018-11-04T13:51:14.682Z,58.07
2018-11-04T13:53:51.548Z,61.30
2018-11-04T13:56:28.296Z,53.90
2018-11-04T13:59:05.728Z,54.03
2018-11-04T14:01:46.312Z,58.67
2018-11-04T14:04:29.826Z,60.37
2018-11-04T14:07:06.532Z,55.03
2018-11-04T14:09:42.521Z,64.10
2018-11-04T14:12:19.229Z,59.30
2018-11-04T14:14:55.797Z,59.83
2018-11-04T14:17:33.208Z,63.67
2018-11-04T14:20:10.967Z,66.57
2018-11-04T14:22:47.340Z,53.93
2018-11-04T14:25:23.168Z,67.73
2018-11-04T14:28:02.828Z,66.03
2018-11-04T14:30:38.546Z,62.10
2018-11-04T14:33:15.429Z,66.57
2018-11-04T14:35:52.229Z,67.53
2018-11-04T14:38:28.840Z,61.67
2018-11-04T14:41:05.101Z,62.00
2018-11-04T14:43:41.667Z,65.27
2018-11-04T14:46:17.425Z,61.17
2018-11-04T14:48:53.323Z,70.90
2018-11-04T14:51:30.044Z,69.67
2018-11-04T14:54:06.491Z,72.83
2018-11-04T14:56:42.906Z,66.40
2018-11-04T14:59:18.725Z,70.47
2018-11-04T15:01:56.028Z,75.50
2018-11-04T15:04:32.539Z,68.37
2018-11-04T15:07:08.512Z,64.63
2018-11-04T15:09:45.216Z,67.67
2018-11-04T15:12:22.810Z,61.13
2018-11-04T15:14:58.709Z,65.00
2018-11-04T15:17:35.641Z,69.30
2018-11-04T15:20:13.327Z,68.07
2018-11-04T15:22:51.810Z,66.47
2018-11-04T15:25:27.397Z,68.30
2018-11-04T15:28:03.530Z,70.67
2018-11-04T15:30:41.549Z,69.17
2018-11-04T15:33:18.040Z,67.20
2018-11-04T15:35:55.346Z,68.50
2018-11-04T15:38:37.824Z,69.67
2018-11-04T15:41:29.934Z,65.80
2018-11-04T15:44:09.064Z,65.97
2018-11-04T15:46:45.641Z,66.83
2018-11-04T15:49:22.694Z,65.13
2018-11-04T15:51:58.569Z,70.03
2018-11-04T15:54:34.474Z,71.63
2018-11-04T15:57:14.410Z,79.57
2018-11-04T15:59:51.284Z,68.13
2018-11-04T16:02:27.690Z,65.70
2018-11-04T16:05:04.856Z,58.83
2018-11-04T16:07:41.487Z,68.03
2018-11-04T16:10:19.863Z,63.67
2018-11-04T16:12:58.657Z,63.77
2018-11-04T16:15:36.174Z,65.33
2018-11-04T16:18:13.275Z,62.00
2018-11-04T16:20:50.289Z,54.30
2018-11-04T16:23:26.709Z,61.83
2018-11-04T16:26:03.495Z,54.60
2018-11-04T16:28:41.073Z,60.37
2018-11-04T16:31:18.572Z,59.43
2018-11-04T16:33:54.965Z,56.43
2018-11-04T16:36:31.835Z,65.00
2018-11-04T16:39:09.478Z,59.17
2018-11-04T16:41:47.035Z,67.13
2018-11-04T16:44:23.432Z,65.17
2018-11-04T16:47:00.140Z,62.37
2018-11-04T16:49:36.877Z,68.30
2018-11-04T16:52:13.660Z,69.97
2018-11-04T16:54:51.912Z,67.00
2018-11-04T16:57:29.875Z,64.03
2018-11-04T17:00:07.532Z,66.83
2018-11-04T17:02:44.157Z,67.23
2018-11-04T17:05:20.879Z,67.23
2018-11-04T17:07:57.491Z,64.67
2018-11-04T17:10:35.923Z,68.53
2018-11-04T17:13:12.686Z,64.47
2018-11-04T17:15:49.968Z,64.90
2018-11-04T17:18:28.040Z,77.87
2018-11-04T17:21:04.539Z,68.87
2018-11-04T17:23:41.957Z,70.70
2018-11-04T17:26:18.453Z,66.67
2018-11-04T17:28:54.546Z,72.27
2018-11-04T17:31:30.867Z,80.23
2018-11-04T17:34:07.562Z,69.27
2018-11-04T17:36:43.709Z,70.70
2018-11-04T17:39:20.149Z,72.80
2018-11-04T17:41:56.458Z,65.40
2018-11-04T17:44:32.640Z,72.47
2018-11-04T17:47:09.362Z,67.57
2018-11-04T17:49:46.309Z,65.13
2018-11-04T17:52:24.724Z,69.90
2018-11-04T17:55:00.641Z,68.23
2018-11-04T17:57:37.461Z,71.90
2018-11-04T18:00:15.734Z,87.57
2018-11-04T18:02:51.902Z,64.73
2018-11-04T18:05:29.277Z,79.80
2018-11-04T18:08:06.204Z,85.90
2018-11-04T18:10:42.544Z,71.10
2018-11-04T18:13:19.177Z,68.43
2018-11-04T18:15:55.642Z,76.93
2018-11-04T18:18:32.952Z,73.73
2018-11-04T18:21:09.165Z,67.77
2018-11-04T18:23:45.963Z,71.60
2018-11-04T18:26:21.776Z,66.00
2018-11-04T18:28:57.413Z,64.13
2018-11-04T18:31:34.639Z,61.30
2018-11-04T18:34:11.331Z,72.73
2018-11-04T18:36:48.122Z,63.87
2018-11-04T18:39:24.713Z,67.33
2018-11-04T18:42:01.216Z,65.50
2018-11-04T18:44:37.424Z,66.17
2018-11-04T18:47:14.012Z,72.63
2018-11-04T18:49:50.234Z,68.57
2018-11-04T18:52:25.940Z,63.77
2018-11-04T18:55:04.352Z,75.30
2018-11-04T18:57:41.721Z,67.57
2018-11-04T19:00:19.415Z,72.03
2018-11-04T19:02:55.043Z,64.70
2018-11-04T19:05:31.074Z,68.30
2018-11-04T19:08:07.869Z,73.33
2018-11-04T19:10:44.820Z,70.23
2018-11-04T19:13:21.310Z,66.63
2018-11-04T19:15:57.352Z,69.57
2018-11-04T19:18:33.407Z,72.33
2018-11-04T19:21:10.526Z,76.30
2018-11-04T19:23:46.822Z,70.07
2018-11-04T19:26:23.363Z,71.40
2018-11-04T19:28:59.520Z,74.50
2018-11-04T19:31:36.079Z,74.40
2018-11-04T19:34:12.043Z,73.60
2018-11-04T19:36:47.880Z,72.93
2018-11-04T19:39:24.863Z,68.57
2018-11-04T19:42:01.429Z,68.77
2018-11-04T19:44:38.288Z,64.47
2018-11-04T19:47:14.902Z,61.73
2018-11-04T19:49:51.592Z,62.77
2018-11-04T19:52:28.121Z,59.53
2018-11-04T19:55:04.160Z,53.43
2018-11-04T19:57:44.115Z,49.93
2018-11-04T20:00:23.198Z,46.97
2018-11-04T20:03:02.704Z,54.10
2018-11-04T20:05:40.280Z,48.50
2018-11-04T20:08:16.517Z,43.17
2018-11-04T20:10:52.448Z,50.33
2018-11-04T20:13:33.583Z,50.23
2018-11-04T20:16:10.272Z,51.10
2018-11-04T20:18:51.816Z,51.63
2018-11-04T20:21:28.409Z,50.53
2018-11-04T20:24:09.234Z,55.10
2018-11-04T20:26:46.295Z,51.17
2018-11-04T20:29:23.750Z,55.20
2018-11-04T20:34:57.888Z,52.23
2018-11-04T20:37:34.020Z,56.47
2018-11-04T20:40:15.964Z,54.43
2018-11-04T20:42:52.809Z,51.73
2018-11-04T20:45:30.178Z,55.00
2018-11-04T20:48:15.185Z,55.97
2018-11-04T20:51:02.923Z,53.87
2018-11-04T20:53:39.725Z,49.90
2018-11-04T20:56:22.432Z,58.30
2018-11-04T20:58:58.983Z,53.67
2018-11-04T21:01:36.068Z,52.40
2018-11-04T21:04:12.610Z,57.30
2018-11-04T21:06:49.095Z,61.53
2018-11-04T21:09:26.362Z,63.43
2018-11-04T21:12:03.411Z,70.90
2018-11-04T21:14:39.489Z,69.10
2018-11-04T21:17:16.328Z,73.60
2018-11-04T21:19:52.890Z,68.73
2018-11-04T21:22:29.988Z,73.57
2018-11-04T21:25:07.457Z,74.37
2018-11-04T21:27:43.685Z,84.00
2018-11-04T21:30:19.897Z,80.97
2018-11-04T21:32:56.626Z,85.30
2018-11-04T21:35:32.983Z,77.93
2018-11-04T21:38:09.526Z,83.00
2018-11-04T21:40:46.142Z,84.07
2018-11-04T21:43:23.190Z,84.20
2018-11-04T21:45:59.578Z,80.10
2018-11-04T21:48:35.342Z,81.17
2018-11-04T21:51:11.219Z,83.47
2018-11-04T21:53:46.962Z,90.67
2018-11-04T21:56:24.304Z,84.40
2018-11-04T21:59:00.555Z,90.90
2018-11-04T22:01:36.320Z,80.37
2018-11-04T22:04:12.499Z,98.83
2018-11-04T22:06:49.991Z,96.17
2018-11-04T22:09:25.718Z,105.03
2018-11-04T22:12:01.516Z,103.00
2018-11-04T22:14:38.155Z,102.00
2018-11-04T22:17:13.845Z,107.17
2018-11-04T22:19:49.660Z,98.93
2018-11-04T22:22:25.535Z,101.80
2018-11-04T22:25:01.384Z,110.37
2018-11-04T22:27:37.180Z,99.60
2018-11-04T22:30:13.283Z,110.23
2018-11-04T22:32:49.745Z,108.83
2018-11-04T22:35:25.729Z,106.00
2018-11-04T22:38:02.416Z,98.03
2018-11-04T22:40:38.441Z,100.10
2018-11-04T22:43:14.517Z,95.27
2018-11-04T22:45:51.134Z,108.87
2018-11-04T22:48:27.872Z,100.80
2018-11-04T22:51:03.703Z,104.20
2018-11-04T22:53:39.385Z,100.33
2018-11-04T22:56:15.169Z,107.83
2018-11-04T22:58:50.830Z,106.13
2018-11-04T23:01:26.695Z,102.20
2018-11-04T23:04:02.462Z,113.77
2018-11-04T23:06:38.394Z,104.83
2018-11-04T23:09:14.155Z,110.30
2018-11-04T23:11:49.858Z,111.87
2018-11-04T23:14:25.816Z,113.07
2018-11-04T23:17:01.827Z,108.73
2018-11-04T23:19:38.366Z,112.77
2018-11-04T23:22:15.735Z,106.20
2018-11-04T23:24:51.891Z,114.73
2018-11-04T23:27:27.629Z,110.23
2018-11-04T23:30:03.660Z,97.80
2018-11-04T23:32:40.273Z,104.97
2018-11-04T23:35:15.784Z,104.50
2018-11-04T23:37:51.694Z,108.17
2018-11-04T23:40:27.417Z,106.77
2018-11-04T23:43:03.141Z,109.83
2018-11-04T23:45:39.191Z,103.50
2018-11-04T23:48:14.960Z,107.33
2018-11-04T23:50:50.618Z,102.53
2018-11-04T23:53:26.378Z,110.03
2018-11-04T23:56:02.315Z,101.50
2018-11-04T23:58:37.948Z,97.03
